Greenehaven, Arizona
Current Conditions -  °F | °C
As of 9:53 AM on Thursday 27 Nov 2014 (Local Time) from KPGA Reporting Station
Clear Clear  
Wind Chill: 44°   Ceiling: Unl
Heat Index: 44°   Visibility: 10mi
Dew Point: 18°   Wind: 0mph
Humidity: 35%   Direction: NA
Pressure: 30.46"   Gusts: NA
Location:  36.8282°N, 111.153°W
Report Text: KPGA 271653Z AUTO 00000KT 10SM CLR 07/M08 A3046 RMK AO2 SLP307 T00671078 TSNO
Loading
Personal Weather Stations






























Interactive Weather Map New forecast layout! Learn more

10-Day Weather Forecast

Advertisements
Track Severe Weather on mobile